Time;durP1;ratioP1;P1;durP2;ratioP2;P2;SDS_P1;SDS_P2;PMS_P1;PMS_P2;Temp;Humidity;BMP_temperature;BMP_pressure;BME280_temperature;BME280_humidity;BME280_pressure;Samples;Min_cycle;Max_cycle;Signal;HPM_P1;HPM_P2
2023/09/18 00:00:22;;;;;;;3.43;3.17;;;24.90;48.30;;;;;;20527;6888;118216;-75
2023/09/18 00:02:47;;;;;;;3.10;2.77;;;24.80;48.30;;;;;;20558;6888;118091;-74
2023/09/18 00:05:17;;;;;;;3.37;3.03;;;24.20;49.80;;;;;;20559;6888;117580;-74
2023/09/18 00:07:43;;;;;;;3.35;3.12;;;24.30;49.10;;;;;;20355;6888;339673;-74
2023/09/18 00:10:09;;;;;;;3.43;3.10;;;24.30;50.00;;;;;;20565;6888;118104;-74
2023/09/18 00:12:35;;;;;;;4.25;3.50;;;24.30;49.10;;;;;;20217;6888;339161;-74
2023/09/18 00:15:00;;;;;;;3.67;3.37;;;24.50;49.00;;;;;;20364;6886;279669;-74
2023/09/18 00:17:26;;;;;;;3.78;3.37;;;24.70;48.60;;;;;;20363;6887;330696;-74
2023/09/18 00:19:51;;;;;;;4.47;2.90;;;24.90;48.30;;;;;;20570;6887;117438;-74
2023/09/18 00:22:17;;;;;;;3.90;3.50;;;24.70;48.40;;;;;;20342;6887;309692;-74
2023/09/18 00:24:42;;;;;;;3.00;2.80;;;24.80;48.30;;;;;;20570;6887;118234;-74
2023/09/18 00:27:08;;;;;;;3.07;2.87;;;24.60;48.50;;;;;;20567;6887;118253;-73
2023/09/18 00:29:34;;;;;;;3.73;3.37;;;24.30;48.90;;;;;;20357;6887;311054;-74
2023/09/18 00:31:59;;;;;;;2.93;2.73;;;24.40;49.00;;;;;;20569;6887;119057;-74
2023/09/18 00:34:25;;;;;;;3.20;2.87;;;24.30;48.80;;;;;;20551;6887;121652;-74
2023/09/18 00:36:50;;;;;;;3.70;3.40;;;24.10;49.00;;;;;;20362;6887;281033;-76
2023/09/18 00:39:16;;;;;;;3.73;2.93;;;24.30;49.10;;;;;;20565;6887;118260;-74
2023/09/18 00:41:42;;;;;;;3.50;3.20;;;24.30;49.10;;;;;;20358;6887;308994;-74
2023/09/18 00:44:07;;;;;;;4.40;3.35;;;24.50;49.20;;;;;;20360;6887;323742;-77
2023/09/18 00:46:34;;;;;;;3.70;3.40;;;24.80;48.40;;;;;;20186;6887;284691;-74
2023/09/18 00:49:00;;;;;;;3.67;3.40;;;25.10;47.70;;;;;;20351;6887;313392;-74
2023/09/18 00:51:25;;;;;;;3.40;3.10;;;25.20;47.90;;;;;;20360;6887;318432;-74
2023/09/18 00:53:51;;;;;;;3.50;3.20;;;25.40;46.70;;;;;;20367;6888;279794;-74
2023/09/18 00:56:16;;;;;;;3.50;3.20;;;25.50;46.60;;;;;;20326;6888;341476;-74
2023/09/18 00:58:43;;;;;;;6.47;3.30;;;25.60;46.20;;;;;;20354;6888;279408;-74
2023/09/18 01:01:09;;;;;;;3.37;3.10;;;25.80;46.30;;;;;;20354;6888;314237;-74
2023/09/18 01:03:36;;;;;;;3.70;2.90;;;25.80;46.20;;;;;;20550;6888;121699;-74
2023/09/18 01:06:03;;;;;;;3.07;2.93;;;25.60;46.60;;;;;;20567;6888;119083;-74
2023/09/18 01:08:28;;;;;;;2.90;2.70;;;24.90;47.80;;;;;;20543;6888;118533;-74
2023/09/18 01:11:08;;;;;;;4.57;3.67;;;25.00;49.20;;;;;;20372;6888;339788;-74
2023/09/18 01:13:42;;;;;;;4.00;3.40;;;25.20;48.70;;;;;;19506;6898;312192;-74
2023/09/18 01:16:17;;;;;;;3.73;2.90;;;25.30;48.70;;;;;;20536;6888;120237;-75
2023/09/18 01:18:51;;;;;;;3.40;3.10;;;25.10;48.80;;;;;;20320;6888;338276;-74
2023/09/18 01:21:20;;;;;;;3.40;3.20;;;25.10;49.10;;;;;;20568;6888;119882;-75
2023/09/18 01:23:47;;;;;;;5.30;3.20;;;24.80;49.10;;;;;;20363;6888;279663;-74
2023/09/18 01:26:12;;;;;;;5.17;3.83;;;24.80;49.10;;;;;;20332;6886;339036;-75
2023/09/18 01:28:38;;;;;;;4.50;3.10;;;25.00;48.80;;;;;;20576;6887;119088;-74
2023/09/18 01:31:03;;;;;;;4.60;3.57;;;24.80;48.80;;;;;;20362;6887;281397;-74
2023/09/18 01:33:29;;;;;;;3.23;2.90;;;24.80;48.90;;;;;;20552;6887;117557;-74
2023/09/18 01:35:55;;;;;;;3.80;3.47;;;24.60;49.10;;;;;;20357;6887;301345;-74
2023/09/18 01:38:20;;;;;;;5.17;3.60;;;24.60;49.20;;;;;;20547;6887;117488;-75
2023/09/18 01:40:46;;;;;;;4.07;3.50;;;24.40;49.10;;;;;;20358;6887;314128;-73
2023/09/18 01:43:12;;;;;;;3.60;3.30;;;24.40;49.10;;;;;;20571;6887;120944;-77
2023/09/18 01:45:37;;;;;;;3.80;3.40;;;24.20;49.30;;;;;;20573;6887;121485;-74
2023/09/18 01:48:03;;;;;;;4.27;3.47;;;23.90;49.80;;;;;;20365;6887;279662;-73
2023/09/18 01:50:29;;;;;;;5.37;3.30;;;24.00;49.60;;;;;;20545;6887;118400;-73
2023/09/18 01:52:54;;;;;;;5.97;3.92;;;23.90;49.80;;;;;;20359;6887;281884;-74
2023/09/18 01:55:20;;;;;;;3.78;3.42;;;23.90;51.50;;;;;;20363;6887;339057;-75
2023/09/18 01:57:45;;;;;;;3.50;3.20;;;24.20;51.40;;;;;;20576;6887;120637;-73
2023/09/18 02:00:11;;;;;;;3.80;3.50;;;24.00;51.10;;;;;;20517;6895;122205;-73
2023/09/18 02:02:39;;;;;;;4.10;3.17;;;23.80;51.80;;;;;;20338;6895;284450;-73
2023/09/18 02:05:05;;;;;;;4.00;3.30;;;23.70;51.80;;;;;;20539;6895;118054;-72
2023/09/18 02:07:31;;;;;;;4.43;3.53;;;23.70;51.80;;;;;;20334;6895;296433;-74
2023/09/18 02:09:56;;;;;;;3.60;3.30;;;23.90;52.90;;;;;;20338;6895;280990;-75
2023/09/18 02:12:22;;;;;;;5.53;3.50;;;24.20;52.40;;;;;;20323;6895;280583;-73
2023/09/18 02:14:47;;;;;;;4.03;3.58;;;24.40;52.20;;;;;;20341;6895;284268;-75
2023/09/18 02:17:13;;;;;;;4.17;3.37;;;24.60;52.10;;;;;;20582;6880;117656;-73
2023/09/18 02:19:39;;;;;;;5.10;3.80;;;24.30;51.70;;;;;;20297;6895;313439;-72
2023/09/18 02:22:04;;;;;;;5.57;3.70;;;24.20;51.20;;;;;;20545;6896;120221;-73
2023/09/18 02:24:30;;;;;;;3.53;3.30;;;24.00;51.20;;;;;;20480;6896;119581;-73
2023/09/18 02:26:55;;;;;;;4.27;3.40;;;23.60;51.60;;;;;;20496;6910;118448;-73
2023/09/18 02:29:22;;;;;;;4.45;3.75;;;23.30;52.10;;;;;;20295;6910;282102;-73
2023/09/18 02:31:46;;;;;;;4.47;3.50;;;23.30;52.40;;;;;;20530;6895;117685;-73
2023/09/18 02:34:12;;;;;;;4.00;3.47;;;23.30;52.20;;;;;;20263;6895;315548;-74
2023/09/18 02:36:38;;;;;;;3.50;3.20;;;23.40;52.10;;;;;;20528;6897;118520;-74
2023/09/18 02:39:03;;;;;;;6.10;3.70;;;23.30;52.00;;;;;;20312;6882;314467;-74
2023/09/18 02:41:29;;;;;;;4.13;3.60;;;23.40;52.50;;;;;;20353;6886;322530;-74
2023/09/18 02:43:55;;;;;;;3.63;3.40;;;23.70;52.30;;;;;;20584;6883;117443;-74
2023/09/18 02:46:20;;;;;;;4.83;3.80;;;23.60;52.20;;;;;;20281;6883;285002;-74
2023/09/18 02:48:46;;;;;;;3.53;3.23;;;23.70;52.50;;;;;;20568;6887;117615;-79
2023/09/18 02:51:12;;;;;;;3.27;3.07;;;23.30;52.70;;;;;;20552;6887;116726;-74
2023/09/18 02:53:37;;;;;;;3.17;2.97;;;23.20;53.10;;;;;;20540;6898;120885;-74
2023/09/18 02:56:03;;;;;;;5.07;3.58;;;23.00;52.80;;;;;;20327;6898;328109;-74
2023/09/18 02:58:30;;;;;;;4.47;3.40;;;23.10;52.50;;;;;;20522;6892;120829;-74
2023/09/18 03:00:54;;;;;;;3.93;3.40;;;23.10;52.50;;;;;;20550;6892;117679;-74
2023/09/18 03:03:20;;;;;;;5.27;3.80;;;22.90;52.80;;;;;;20336;6895;283503;-74
2023/09/18 03:05:45;;;;;;;4.40;3.83;;;23.00;53.50;;;;;;20340;6895;311791;-74
2023/09/18 03:08:11;;;;;;;4.85;3.83;;;23.30;53.30;;;;;;20315;6895;339197;-74
2023/09/18 03:10:40;;;;;;;4.77;3.90;;;23.50;52.90;;;;;;20289;6895;309823;-73
2023/09/18 03:13:05;;;;;;;4.10;3.47;;;23.60;52.40;;;;;;20284;6892;310608;-73
2023/09/18 03:15:31;;;;;;;5.40;3.70;;;23.70;52.00;;;;;;20332;6892;310169;-74
2023/09/18 03:17:57;;;;;;;3.80;3.40;;;23.70;52.00;;;;;;20535;6893;121844;-74
2023/09/18 03:20:23;;;;;;;4.10;3.53;;;23.40;52.10;;;;;;20282;6893;324086;-73
2023/09/18 03:22:48;;;;;;;5.32;3.62;;;23.40;52.40;;;;;;20520;6888;117867;-74
2023/09/18 03:25:14;;;;;;;4.07;3.50;;;23.20;52.60;;;;;;20339;6888;309744;-73
2023/09/18 03:27:39;;;;;;;4.60;3.10;;;23.20;52.70;;;;;;20554;6888;121246;-73
2023/09/18 03:30:05;;;;;;;4.03;3.53;;;23.00;52.70;;;;;;20349;6888;284842;-72
2023/09/18 03:32:31;;;;;;;3.50;3.20;;;23.10;53.30;;;;;;20527;6888;119865;-72
2023/09/18 03:34:56;;;;;;;5.37;3.43;;;22.90;53.20;;;;;;20551;6888;118225;-74
2023/09/18 03:37:22;;;;;;;3.97;3.50;;;22.60;53.60;;;;;;20555;6888;117877;-72
2023/09/18 03:39:47;;;;;;;9.10;3.30;;;22.30;54.00;;;;;;20568;6888;123702;-73
2023/09/18 03:42:13;;;;;;;3.27;2.97;;;22.10;54.40;;;;;;20556;6888;118979;-73
2023/09/18 03:44:39;;;;;;;4.00;3.03;;;22.00;54.70;;;;;;20571;6888;118100;-73
2023/09/18 03:47:05;;;;;;;6.53;3.50;;;21.80;55.10;;;;;;20574;6888;117393;-73
2023/09/18 03:49:31;;;;;;;5.03;4.05;;;21.80;55.10;;;;;;20360;6886;299958;-72
2023/09/18 03:51:58;;;;;;;6.45;4.10;;;22.50;54.60;;;;;;20364;6887;338993;-73
2023/09/18 03:54:23;;;;;;;3.63;3.37;;;22.50;54.60;;;;;;20555;6887;118130;-74
2023/09/18 03:56:49;;;;;;;4.12;3.40;;;22.50;54.30;;;;;;20373;6887;317488;-72
2023/09/18 03:59:14;;;;;;;5.57;3.40;;;22.60;54.00;;;;;;20578;6887;118119;-74
2023/09/18 04:01:42;;;;;;;5.93;3.90;;;22.70;53.50;;;;;;20344;6887;280531;-74
2023/09/18 04:04:08;;;;;;;4.32;3.83;;;22.70;53.90;;;;;;20345;6887;309772;-74
2023/09/18 04:06:37;;;;;;;5.10;3.70;;;23.00;53.10;;;;;;20364;6887;280002;-73
2023/09/18 04:09:02;;;;;;;5.00;3.77;;;23.30;52.70;;;;;;20349;6887;309798;-73
2023/09/18 04:11:31;;;;;;;3.63;3.30;;;23.40;52.50;;;;;;20576;6887;120252;-73
2023/09/18 04:13:53;;;;;;;6.78;3.30;;;23.20;52.60;;;;;;20351;6887;310482;-73
2023/09/18 04:16:19;;;;;;;4.40;3.30;;;23.20;52.90;;;;;;20556;6887;120146;-73
2023/09/18 04:18:45;;;;;;;3.85;3.53;;;23.10;52.90;;;;;;20357;6887;312634;-73
2023/09/18 04:21:10;;;;;;;4.90;3.37;;;23.10;53.00;;;;;;20573;6887;117662;-72
2023/09/18 04:23:36;;;;;;;4.20;3.87;;;22.90;53.60;;;;;;20356;6887;310242;-73
2023/09/18 04:26:02;;;;;;;3.67;3.37;;;23.00;53.70;;;;;;20569;6887;119633;-74
2023/09/18 04:28:28;;;;;;;4.30;3.90;;;22.80;53.90;;;;;;20347;6888;281878;-72
2023/09/18 04:30:55;;;;;;;4.05;3.70;;;22.80;53.90;;;;;;20355;6888;316825;-72
2023/09/18 04:33:21;;;;;;;3.97;3.50;;;23.00;53.60;;;;;;20340;6888;311985;-73
2023/09/18 04:35:45;;;;;;;5.50;3.90;;;23.20;53.30;;;;;;20366;6888;309736;-74
2023/09/18 04:38:11;;;;;;;3.63;2.80;;;23.30;52.90;;;;;;20554;6888;120643;-74
2023/09/18 04:40:36;;;;;;;4.33;3.07;;;23.10;53.10;;;;;;20569;6888;121851;-82
2023/09/18 04:43:04;;;;;;;7.00;3.27;;;22.80;53.50;;;;;;20572;6888;119324;-75
2023/09/18 04:45:28;;;;;;;5.30;4.03;;;22.50;53.80;;;;;;20349;6888;280850;-75
2023/09/18 04:47:54;;;;;;;4.90;3.70;;;22.60;53.90;;;;;;20361;6888;281208;-73
2023/09/18 04:50:20;;;;;;;5.07;3.33;;;22.80;53.30;;;;;;20537;6888;123946;-74
2023/09/18 04:52:45;;;;;;;4.63;2.90;;;22.80;53.30;;;;;;20560;6888;118468;-73
2023/09/18 04:55:11;;;;;;;3.97;3.27;;;22.50;53.60;;;;;;20564;6888;118823;-74
2023/09/18 04:57:36;;;;;;;7.07;3.55;;;22.30;54.00;;;;;;20365;6888;280679;-74
2023/09/18 05:00:02;;;;;;;6.12;3.50;;;22.50;54.10;;;;;;20363;6888;284953;-71
2023/09/18 05:02:28;;;;;;;6.13;3.03;;;22.80;53.50;;;;;;20545;6886;121192;-73
2023/09/18 05:04:55;;;;;;;4.10;3.03;;;22.70;53.30;;;;;;20568;6887;117818;-73
2023/09/18 05:07:19;;;;;;;5.87;2.97;;;22.50;53.60;;;;;;20544;6887;121217;-73
2023/09/18 05:09:45;;;;;;;5.35;3.40;;;22.30;54.00;;;;;;20358;6887;281034;-76
2023/09/18 05:12:13;;;;;;;5.78;3.25;;;22.50;54.00;;;;;;20337;6887;343376;-73
2023/09/18 05:14:36;;;;;;;8.43;3.28;;;22.90;53.30;;;;;;20565;6887;117690;-73
2023/09/18 05:17:02;;;;;;;4.83;3.20;;;22.90;53.30;;;;;;20572;6887;117646;-72
2023/09/18 05:19:28;;;;;;;4.78;3.37;;;22.90;53.70;;;;;;20337;6887;309310;-74
2023/09/18 05:21:54;;;;;;;6.43;3.20;;;22.80;53.50;;;;;;20582;6887;118961;-73
2023/09/18 05:24:26;;;;;;;4.90;3.20;;;22.90;53.60;;;;;;20352;6887;308873;-73
2023/09/18 05:26:45;;;;;;;6.05;2.97;;;23.00;53.30;;;;;;20558;6887;120991;-73
2023/09/18 05:29:11;;;;;;;7.28;3.45;;;23.00;53.30;;;;;;20362;6887;313764;-71
2023/09/18 05:31:37;;;;;;;6.80;3.40;;;23.20;53.10;;;;;;20361;6887;321235;-74
2023/09/18 05:34:02;;;;;;;6.57;3.03;;;23.50;52.40;;;;;;20571;6887;119757;-72
2023/09/18 05:36:28;;;;;;;7.67;3.40;;;23.40;52.40;;;;;;20345;6887;282135;-72
2023/09/18 05:38:53;;;;;;;5.87;2.87;;;23.40;52.60;;;;;;20574;6888;120319;-72
2023/09/18 05:41:19;;;;;;;5.50;3.30;;;23.40;52.70;;;;;;20359;6888;279684;-72
2023/09/18 05:43:44;;;;;;;6.75;3.50;;;23.50;52.90;;;;;;20328;6888;328341;-72
2023/09/18 05:46:10;;;;;;;6.90;2.80;;;23.70;52.60;;;;;;20548;6888;127563;-72
2023/09/18 05:48:36;;;;;;;5.30;2.97;;;23.60;52.50;;;;;;20573;6888;118876;-72
2023/09/18 05:51:01;;;;;;;7.33;2.97;;;23.40;52.90;;;;;;20567;6888;117688;-74
2023/09/18 05:53:27;;;;;;;4.90;2.67;;;23.20;53.30;;;;;;20573;6888;117671;-72
2023/09/18 05:55:52;;;;;;;5.05;3.03;;;23.10;53.60;;;;;;20363;6888;309823;-73
2023/09/18 05:58:22;;;;;;;9.07;3.40;;;23.30;53.80;;;;;;20340;6888;326245;-73
2023/09/18 06:00:43;;;;;;;9.25;3.40;;;23.70;53.20;;;;;;20555;6888;117862;-72
2023/09/18 06:03:12;;;;;;;8.40;2.62;;;23.70;53.10;;;;;;20562;6888;120507;-72
2023/09/18 06:05:35;;;;;;;9.37;3.40;;;23.50;53.40;;;;;;20360;6888;279796;-72
2023/09/18 06:08:01;;;;;;;7.73;3.53;;;24.00;52.80;;;;;;20358;6888;284614;-72
2023/09/18 06:10:26;;;;;;;7.90;3.60;;;24.00;52.70;;;;;;20312;6888;297581;-72
2023/09/18 06:12:52;;;;;;;7.47;3.40;;;24.20;52.40;;;;;;20314;6886;280060;-71
2023/09/18 06:15:18;;;;;;;5.40;3.30;;;24.40;52.00;;;;;;20311;6887;310209;-72
2023/09/18 06:17:44;;;;;;;7.53;3.20;;;24.70;51.80;;;;;;20324;6887;281426;-71
2023/09/18 06:20:10;;;;;;;7.87;3.07;;;24.70;51.70;;;;;;20205;6887;284691;-72
2023/09/18 06:22:38;;;;;;;8.90;3.20;;;24.80;51.60;;;;;;20246;6887;318172;-71
2023/09/18 06:25:07;;;;;;;5.83;2.80;;;24.90;51.20;;;;;;20514;6887;66828;-71
2023/09/18 06:27:33;;;;;;;6.13;2.70;;;24.60;51.50;;;;;;20511;6887;117683;-71
2023/09/18 06:29:58;;;;;;;4.43;2.67;;;24.20;52.10;;;;;;20514;6887;117596;-71
2023/09/18 06:32:24;;;;;;;5.32;2.80;;;23.90;52.80;;;;;;20504;6887;148002;-72
2023/09/18 06:34:49;;;;;;;6.77;2.93;;;23.60;53.30;;;;;;20534;6887;117708;-72
2023/09/18 06:37:15;;;;;;;8.00;2.80;;;23.40;53.60;;;;;;20539;6887;118036;-71
2023/09/18 06:39:41;;;;;;;7.57;2.93;;;23.30;53.90;;;;;;20549;6887;117569;-72
2023/09/18 06:42:06;;;;;;;5.30;3.00;;;23.20;54.20;;;;;;20570;6887;120152;-71
2023/09/18 06:44:32;;;;;;;5.65;3.00;;;23.30;55.10;;;;;;20333;6887;282844;-72
2023/09/18 06:46:58;;;;;;;8.47;3.03;;;23.30;55.10;;;;;;20353;6887;313486;-71
2023/09/18 06:49:24;;;;;;;5.73;2.40;;;23.60;54.10;;;;;;20555;6887;118038;-72
2023/09/18 06:51:50;;;;;;;5.45;2.60;;;23.60;54.10;;;;;;20353;6888;338639;-72
2023/09/18 06:54:15;;;;;;;5.00;2.40;;;23.70;54.20;;;;;;20550;6888;119713;-72
2023/09/18 06:56:41;;;;;;;5.07;2.27;;;23.60;54.00;;;;;;20574;6888;117782;-72
2023/09/18 06:59:06;;;;;;;5.43;2.43;;;23.40;54.30;;;;;;20351;6888;285789;-71
2023/09/18 07:01:33;;;;;;;6.57;2.57;;;23.50;54.30;;;;;;20345;6888;339838;-71
2023/09/18 07:03:59;;;;;;;5.23;2.50;;;23.80;53.90;;;;;;20354;6888;310286;-72
2023/09/18 07:06:23;;;;;;;4.63;2.40;;;24.00;53.10;;;;;;20540;6888;118845;-72
2023/09/18 07:08:49;;;;;;;4.17;2.30;;;23.90;53.20;;;;;;20570;6888;118225;-72
2023/09/18 07:11:14;;;;;;;4.67;2.40;;;23.60;53.50;;;;;;20352;6888;309485;-72
2023/09/18 07:13:40;;;;;;;3.70;2.35;;;23.70;53.60;;;;;;20359;6888;325047;-70
2023/09/18 07:16:05;;;;;;;4.15;2.50;;;24.00;53.30;;;;;;20347;6888;284798;-70
2023/09/18 07:18:31;;;;;;;4.40;2.23;;;24.30;52.70;;;;;;20535;6888;118469;-70
2023/09/18 07:20:59;;;;;;;4.65;2.40;;;24.60;52.70;;;;;;20343;6888;294323;-74
2023/09/18 07:23:24;;;;;;;5.00;2.50;;;24.50;52.60;;;;;;20366;6888;284600;-73
2023/09/18 07:25:50;;;;;;;2.30;2.10;;;24.90;52.00;;;;;;20575;6886;117582;-73
2023/09/18 07:28:19;;;;;;;5.67;2.13;;;24.90;52.00;;;;;;20556;6887;121430;-75
2023/09/18 07:30:43;;;;;;;4.00;2.70;;;24.80;52.40;;;;;;20361;6887;280526;-74
2023/09/18 07:33:08;;;;;;;4.63;2.23;;;25.00;52.50;;;;;;20566;6887;117589;-73
2023/09/18 07:35:34;;;;;;;5.68;2.58;;;25.20;52.50;;;;;;20359;6887;309852;-76
2023/09/18 07:37:59;;;;;;;6.10;2.37;;;25.10;51.80;;;;;;20558;6887;117561;-74
2023/09/18 07:40:25;;;;;;;5.28;2.60;;;25.20;51.90;;;;;;20344;6887;311603;-74
2023/09/18 07:42:51;;;;;;;3.53;2.50;;;25.30;51.60;;;;;;20359;6887;344404;-74
2023/09/18 07:45:17;;;;;;;7.43;2.70;;;25.60;50.80;;;;;;20356;6887;310263;-74
2023/09/18 07:47:42;;;;;;;5.73;2.20;;;25.80;49.90;;;;;;20571;6887;123454;-74
2023/09/18 07:50:07;;;;;;;4.30;2.40;;;25.70;50.20;;;;;;20356;6887;319382;-74
2023/09/18 07:52:34;;;;;;;3.13;2.13;;;25.60;50.40;;;;;;20571;6887;117779;-74
2023/09/18 07:54:59;;;;;;;5.03;2.37;;;25.60;50.30;;;;;;20356;6887;311453;-74
2023/09/18 07:57:25;;;;;;;3.60;1.90;;;25.70;50.40;;;;;;20572;6887;119510;-75
2023/09/18 07:59:50;;;;;;;4.97;2.30;;;25.70;50.50;;;;;;20569;6887;120247;-74
2023/09/18 08:02:17;;;;;;;6.62;2.12;;;25.60;50.80;;;;;;20549;6888;118747;-75
2023/09/18 08:04:42;;;;;;;5.47;2.60;;;25.40;51.10;;;;;;20366;6888;284686;-74
2023/09/18 08:07:08;;;;;;;4.57;2.63;;;25.70;51.00;;;;;;20569;6888;118037;-75
2023/09/18 08:09:37;;;;;;;4.57;2.17;;;25.70;50.70;;;;;;20360;6888;315960;-73
2023/09/18 08:12:02;;;;;;;6.40;2.72;;;25.90;50.30;;;;;;20346;6888;329954;-73
2023/09/18 08:14:29;;;;;;;4.80;2.30;;;26.20;49.60;;;;;;20568;6888;118712;-73
2023/09/18 08:16:58;;;;;;;8.37;2.40;;;26.20;49.60;;;;;;20569;6888;117595;-73
2023/09/18 08:19:26;;;;;;;5.15;2.05;;;25.90;49.90;;;;;;20356;6888;342102;-73
2023/09/18 08:21:49;;;;;;;3.37;2.13;;;26.00;49.10;;;;;;20330;6888;310153;-73
2023/09/18 08:24:15;;;;;;;6.05;2.00;;;26.20;48.90;;;;;;20345;6888;314000;-73
2023/09/18 08:26:41;;;;;;;4.80;1.90;;;26.50;47.60;;;;;;20361;6888;281974;-72
2023/09/18 08:29:07;;;;;;;2.90;1.73;;;26.50;47.60;;;;;;20572;6888;118887;-72
2023/09/18 08:31:33;;;;;;;3.33;1.83;;;26.00;49.20;;;;;;20368;6888;283110;-73
2023/09/18 08:33:58;;;;;;;4.63;2.00;;;26.00;48.50;;;;;;20368;6888;280972;-73
2023/09/18 08:36:24;;;;;;;3.53;1.93;;;26.00;49.00;;;;;;20355;6886;311637;-72
2023/09/18 08:38:50;;;;;;;3.78;1.70;;;26.00;49.00;;;;;;20368;6887;285249;-72
2023/09/18 08:41:15;;;;;;;4.18;1.90;;;26.00;49.40;;;;;;20358;6887;311485;-72
2023/09/18 08:43:41;;;;;;;2.53;1.50;;;25.90;49.80;;;;;;20572;6887;117598;-72
2023/09/18 08:46:06;;;;;;;3.40;1.67;;;25.50;50.30;;;;;;20359;6887;301154;-72
2023/09/18 08:48:36;;;;;;;2.97;1.40;;;25.40;51.20;;;;;;20561;6887;118920;-72
2023/09/18 08:51:00;;;;;;;3.70;1.27;;;25.10;51.60;;;;;;20575;6887;122208;-72
2023/09/18 08:53:26;;;;;;;2.20;1.27;;;24.70;52.20;;;;;;20570;6887;118052;-72
2023/09/18 08:55:57;;;;;;;4.23;1.50;;;24.50;52.80;;;;;;20573;6887;118067;-72
2023/09/18 08:58:19;;;;;;;2.45;1.40;;;24.30;53.30;;;;;;20344;6887;294277;-72
2023/09/18 09:00:43;;;;;;;3.33;1.73;;;24.50;54.10;;;;;;20585;6887;118613;-72
2023/09/18 09:03:09;;;;;;;2.00;1.60;;;24.50;53.80;;;;;;20365;6887;310253;-72
2023/09/18 09:05:34;;;;;;;1.93;1.30;;;24.70;54.10;;;;;;20576;6887;117570;-72
2023/09/18 09:08:00;;;;;;;1.73;1.60;;;24.60;53.80;;;;;;20576;6887;117538;-72
2023/09/18 09:10:25;;;;;;;2.92;1.50;;;24.50;54.10;;;;;;20332;6887;312558;-72
2023/09/18 09:12:57;;;;;;;2.07;1.57;;;24.60;54.10;;;;;;20575;6887;118179;-72
2023/09/18 09:15:22;;;;;;;4.28;1.48;;;24.70;54.10;;;;;;20351;6888;317234;-72
2023/09/18 09:17:48;;;;;;;1.97;1.43;;;24.90;54.20;;;;;;20360;6888;309794;-72
2023/09/18 09:20:13;;;;;;;3.17;1.27;;;25.30;53.80;;;;;;20547;6888;118084;-72
2023/09/18 09:22:40;;;;;;;2.33;1.23;;;25.20;53.50;;;;;;20570;6888;118167;-72
2023/09/18 09:25:05;;;;;;;3.83;1.80;;;25.00;53.80;;;;;;20355;6888;310823;-72
2023/09/18 09:27:31;;;;;;;3.83;1.40;;;25.40;53.40;;;;;;20364;6888;344011;-72
2023/09/18 09:30:00;;;;;;;2.13;1.53;;;25.40;53.40;;;;;;20534;6888;117489;-72
2023/09/18 09:32:26;;;;;;;2.37;1.37;;;25.00;53.70;;;;;;20558;6888;119324;-72
2023/09/18 09:34:52;;;;;;;2.33;1.30;;;25.00;53.70;;;;;;20554;6888;117558;-72
2023/09/18 09:37:17;;;;;;;2.40;1.58;;;24.80;53.90;;;;;;20342;6888;340199;-72
2023/09/18 09:39:52;;;;;;;3.87;1.57;;;24.90;53.30;;;;;;20363;6888;332108;-72
2023/09/18 09:42:23;;;;;;;1.40;1.30;;;25.20;53.50;;;;;;20344;6888;305923;-72
2023/09/18 09:44:43;;;;;;;1.80;1.30;;;25.40;52.30;;;;;;20563;6888;118860;-72
2023/09/18 09:47:11;;;;;;;1.93;1.40;;;24.90;53.10;;;;;;20581;6886;117630;-72
2023/09/18 09:49:46;;;;;;;1.85;1.30;;;24.80;53.00;;;;;;20362;6887;343371;-72
2023/09/18 09:52:20;;;;;;;1.67;1.13;;;24.90;53.80;;;;;;20276;6887;285083;-73
2023/09/18 09:54:43;;;;;;;1.70;1.30;;;25.20;53.40;;;;;;20340;6887;279653;-72
2023/09/18 09:57:09;;;;;;;2.47;1.10;;;25.40;53.20;;;;;;20374;6887;280815;-72
2023/09/18 09:59:35;;;;;;;1.90;1.23;;;25.60;53.00;;;;;;20366;6887;331476;-73
2023/09/18 10:02:00;;;;;;;2.00;1.23;;;25.80;52.80;;;;;;20359;6887;314206;-75
2023/09/18 10:04:25;;;;;;;2.70;1.30;;;25.90;52.50;;;;;;20553;6887;118560;-73
2023/09/18 10:06:51;;;;;;;2.13;1.20;;;25.70;52.70;;;;;;20568;6887;122300;-75
2023/09/18 10:09:16;;;;;;;1.30;1.20;;;25.40;53.20;;;;;;20356;6887;314523;-72
2023/09/18 10:11:42;;;;;;;1.25;1.15;;;25.40;53.50;;;;;;20341;6887;309395;-73
2023/09/18 10:14:07;;;;;;;3.03;1.47;;;25.70;53.20;;;;;;20340;6887;308302;-75
2023/09/18 10:16:33;;;;;;;3.07;1.60;;;25.90;52.20;;;;;;20548;6887;118285;-73
2023/09/18 10:19:33;;;;;;;1.37;1.27;;;25.70;52.40;;;;;;20571;6887;123392;-72
2023/09/18 10:22:05;;;;;;;2.77;1.03;;;24.90;53.70;;;;;;20564;6887;118584;-74
2023/09/18 10:24:27;;;;;;;2.50;1.60;;;24.90;53.70;;;;;;20010;6888;310592;-72
2023/09/18 10:26:56;;;;;;;1.37;1.27;;;25.00;54.20;;;;;;20525;6888;121826;-72
2023/09/18 10:29:21;;;;;;;2.40;1.50;;;24.90;54.20;;;;;;20293;6888;298756;-72
2023/09/18 10:31:47;;;;;;;1.40;1.30;;;24.90;54.30;;;;;;20543;6888;118117;-71
2023/09/18 10:34:12;;;;;;;2.00;1.30;;;24.60;54.30;;;;;;20332;6888;285276;-71
2023/09/18 10:36:38;;;;;;;2.03;1.67;;;24.60;55.30;;;;;;20343;6888;280146;-72
2023/09/18 10:39:08;;;;;;;2.97;1.40;;;24.80;55.40;;;;;;20555;6888;117592;-71
2023/09/18 10:41:29;;;;;;;2.90;1.40;;;24.60;55.40;;;;;;20350;6888;284664;-71
2023/09/18 10:43:56;;;;;;;3.00;1.58;;;24.50;55.10;;;;;;20574;6888;118054;-71
2023/09/18 10:46:20;;;;;;;3.43;1.70;;;24.30;55.00;;;;;;20337;6888;280515;-72
2023/09/18 10:48:46;;;;;;;1.37;1.27;;;24.30;55.80;;;;;;20583;6888;118060;-71
2023/09/18 10:51:13;;;;;;;1.60;1.50;;;24.00;55.70;;;;;;20363;6888;313011;-72
2023/09/18 10:53:37;;;;;;;2.10;1.63;;;24.00;56.10;;;;;;20567;6888;117600;-72
2023/09/18 10:56:06;;;;;;;2.27;1.40;;;23.90;56.20;;;;;;20571;6888;117612;-74
2023/09/18 10:58:28;;;;;;;4.35;1.45;;;23.60;56.50;;;;;;20317;6888;296666;-70
2023/09/18 11:00:57;;;;;;;1.70;1.43;;;23.90;56.00;;;;;;20370;6886;281066;-70
2023/09/18 11:03:21;;;;;;;1.30;1.20;;;23.90;56.00;;;;;;20569;6887;117536;-70
2023/09/18 11:05:47;;;;;;;2.70;1.37;;;23.70;55.80;;;;;;20570;6887;123331;-71
2023/09/18 11:08:29;;;;;;;1.40;1.30;;;23.40;56.30;;;;;;20560;6887;117682;-71
2023/09/18 11:11:04;;;;;;;2.28;1.40;;;23.20;56.70;;;;;;20342;6887;314925;-70
2023/09/18 11:13:30;;;;;;;1.33;1.10;;;23.40;57.40;;;;;;20574;6887;117589;-71
2023/09/18 11:16:00;;;;;;;1.23;1.20;;;23.40;57.40;;;;;;20567;6887;117572;-70
2023/09/18 11:18:27;;;;;;;1.37;1.27;;;23.40;57.80;;;;;;20334;6887;302439;-71
2023/09/18 11:21:09;;;;;;;1.62;1.40;;;23.70;58.20;;;;;;20337;6887;310523;-70
2023/09/18 11:23:35;;;;;;;1.60;1.50;;;23.70;57.80;;;;;;20353;6887;343299;-74
2023/09/18 11:26:02;;;;;;;1.90;1.20;;;24.00;56.60;;;;;;20576;6887;117923;-72
2023/09/18 11:28:27;;;;;;;2.43;1.60;;;23.80;56.40;;;;;;20299;6887;282867;-70
2023/09/18 11:30:57;;;;;;;2.03;1.62;;;23.90;56.20;;;;;;20328;6887;339930;-71
2023/09/18 11:33:31;;;;;;;2.47;1.50;;;24.00;55.50;;;;;;20563;6887;119297;-70
2023/09/18 11:35:57;;;;;;;1.90;1.40;;;23.80;55.70;;;;;;20358;6887;291702;-71
2023/09/18 11:38:23;;;;;;;3.43;1.83;;;23.80;56.50;;;;;;20331;6888;310229;-73
2023/09/18 11:40:49;;;;;;;2.28;1.40;;;23.90;56.60;;;;;;20365;6888;288598;-72
2023/09/18 11:43:29;;;;;;;2.33;1.37;;;24.20;56.60;;;;;;20361;6888;281169;-70
2023/09/18 11:45:53;;;;;;;2.00;1.20;;;24.30;56.60;;;;;;20571;6888;118717;-70
2023/09/18 11:48:18;;;;;;;1.60;1.50;;;24.00;56.40;;;;;;20351;6888;341476;-70
2023/09/18 11:50:44;;;;;;;1.50;1.40;;;24.00;56.40;;;;;;20580;6888;118198;-70
2023/09/18 11:53:09;;;;;;;2.70;1.50;;;23.80;56.70;;;;;;20376;6888;314338;-70
2023/09/18 11:55:36;;;;;;;1.67;1.13;;;23.80;56.80;;;;;;20553;6888;120692;-70
2023/09/18 11:58:04;;;;;;;1.50;1.20;;;23.60;56.70;;;;;;20569;6888;119287;-70
2023/09/18 12:00:29;;;;;;;1.85;1.58;;;23.30;57.10;;;;;;20338;6888;313877;-70
2023/09/18 12:02:55;;;;;;;1.53;1.33;;;23.50;57.60;;;;;;20563;6888;118728;-70
2023/09/18 12:05:24;;;;;;;1.60;1.50;;;23.40;57.50;;;;;;20358;6888;285339;-70
2023/09/18 12:07:46;;;;;;;1.62;1.52;;;23.50;57.50;;;;;;20365;6888;297183;-70
2023/09/18 12:10:12;;;;;;;2.00;1.90;;;23.70;57.10;;;;;;20556;6886;118724;-71
2023/09/18 12:12:38;;;;;;;2.25;1.45;;;23.70;57.10;;;;;;20339;6887;309795;-70
2023/09/18 12:15:04;;;;;;;2.90;1.50;;;23.80;56.50;;;;;;20372;6887;283915;-70
2023/09/18 12:17:29;;;;;;;1.80;1.10;;;24.00;55.40;;;;;;20574;6887;117544;-70
2023/09/18 12:19:55;;;;;;;1.70;1.33;;;23.90;55.70;;;;;;20364;6887;314727;-70
2023/09/18 12:22:28;;;;;;;1.30;1.20;;;23.90;55.40;;;;;;20347;6887;344053;-71
2023/09/18 12:24:53;;;;;;;2.53;1.07;;;24.10;55.80;;;;;;20575;6887;124093;-71
2023/09/18 12:27:19;;;;;;;1.50;1.20;;;23.70;56.20;;;;;;20568;6887;118675;-71
2023/09/18 12:29:45;;;;;;;1.75;1.33;;;23.70;56.70;;;;;;20359;6887;344000;-71